Thunder radar more information blitzortung!


Löydät sääaseman tiedot myös:

European Weather Network

Finland Weather Exchange

Weather Underground

AWEKAS



Weather Underground säähistoriasivu

Päivittäin yhteenveto Syyskuu 30, 2017 Yksiköt:  Englantilaiset    Metriset   Molemmat
« Edellinen Päivä
Seuraava Päivä »
Päivittäin Viikoittain Kuukausittain Vuosittain Mukautettu
  Korkea: Matala: Keskiarvo:
Lämpötila: TemperatureC °F 3.6 °F 5.4 °F
Kastepiste: DewpointC °F 3.3 °F 5 °F
Kosteus: Humidity % 95 % 96 %
Tuulen nopeus: WindSpeedKMH mph 0.0 mph 0.2 mph
Tuulenpuuska: WindSpeedGustKMH mph - -
Tuuli:- - South
Ilmanpaine: PressurehPa in 1032.1 in -
Sade: 0.0 in    
Historical Graphs
 
 
Taulukkotiedot Syyskuu 30, 2017
Aika Lämpötila Kastepiste Ilmanpaine Tuuli Tuulen nopeus Tuulenpuuska Kosteus Sademäärä (tunneittain)
TemperatureC °F DewpointC °F PressurehPa in Calm     Humidity % HourlyPrecipMM in
00:00 5.2 °F 4.9 °F 1035.1 in Calm     98 % 0.0 in
00:15 5.1 °F 4.8 °F 1035.1 in Calm     98 % 0.0 in
00:30 5.0 °F 4.7 °F 1035.1 in Calm     98 % 0.0 in
00:45 4.9 °F 4.7 °F 1035.1 in Calm     98 % 0.0 in
01:00 4.9 °F 4.6 °F 1035.1 in Calm     98 % 0.0 in
01:15 4.7 °F 4.4 °F 1034.8 in Calm     98 % 0.0 in
01:30 4.5 °F 4.1 °F 1034.8 in Calm     97 % 0.0 in
01:45 4.3 °F 4.0 °F 1034.4 in Calm     98 % 0.0 in
02:00 4.2 °F 3.7 °F 1034.4 in Calm     97 % 0.0 in
02:15 3.9 °F 3.5 °F 1034.4 in Calm     97 % 0.0 in
02:30 3.8 °F 3.5 °F 1034.4 in Calm     98 % 0.0 in
02:45 3.8 °F 3.5 °F 1034.4 in Calm     98 % 0.0 in
03:00 3.8 °F 3.5 °F 1034.4 in Calm     98 % 0.0 in
03:15 3.8 °F 3.5 °F 1034.4 in Calm     98 % 0.0 in
03:30 3.9 °F 3.7 °F 1034.4 in Calm     98 % 0.0 in
03:45 4.0 °F 3.7 °F 1034.4 in Calm     98 % 0.0 in
04:00 4.1 °F 3.8 °F 1034.1 in Calm   3.2 mph 98 % 0.0 in
04:15 3.9 °F 3.7 °F 1034.1 in Calm     98 % 0.0 in
04:30 3.8 °F 3.5 °F 1034.1 in Calm   3.2 mph 98 % 0.0 in
04:45 3.7 °F 3.4 °F 1034.1 in Calm   3.2 mph 98 % 0.0 in
05:00 3.6 °F 3.3 °F 1034.1 in Calm   1.6 mph 98 % 0.0 in
05:15 3.6 °F 3.3 °F 1034.1 in Calm   1.6 mph 98 % 0.0 in
05:30 3.6 °F 3.3 °F 1033.7 in Calm   3.2 mph 98 % 0.0 in
05:45 3.7 °F 3.4 °F 1033.7 in Calm   8.0 mph 98 % 0.0 in
06:00 3.9 °F 3.7 °F 1033.7 in Calm   6.4 mph 98 % 0.0 in
06:15 4.1 °F 3.8 °F 1033.7 in Calm   1.6 mph 98 % 0.0 in
06:30 4.2 °F 3.9 °F 1033.4 in Calm   6.4 mph 98 % 0.0 in
06:45 4.4 °F 4.1 °F 1033.4 in Calm   1.6 mph 98 % 0.0 in
07:00 4.6 °F 4.3 °F 1033.4 in Calm   8.0 mph 98 % 0.0 in
07:15 4.7 °F 4.4 °F 1033.4 in Calm   4.8 mph 98 % 0.0 in
07:30 4.8 °F 4.5 °F 1033.4 in Calm   6.4 mph 98 % 0.0 in
07:45 4.9 °F 4.6 °F 1033.1 in Calm   3.2 mph 98 % 0.0 in
08:00 5.0 °F 4.7 °F 1033.4 in SW 1.6 mph 6.4 mph 98 % 0.0 in
08:15 4.9 °F 4.7 °F 1033.4 in Calm   3.2 mph 98 % 0.0 in
08:30 4.9 °F 4.6 °F 1033.4 in Calm   3.2 mph 98 % 0.0 in
08:45 4.9 °F 4.7 °F 1033.4 in SSE 1.6 mph 6.4 mph 98 % 0.0 in
09:00 4.9 °F 4.7 °F 1033.7 in SE 1.6 mph 6.4 mph 98 % 0.0 in
09:15 5.1 °F 4.8 °F 1033.7 in Calm   6.4 mph 98 % 0.0 in
09:30 5.1 °F 4.8 °F 1033.4 in SSW 1.6 mph 8.0 mph 98 % 0.0 in
09:45 5.2 °F 4.9 °F 1033.4 in Calm   1.6 mph 98 % 0.0 in
10:00 5.2 °F 4.9 °F 1033.7 in Calm   4.8 mph 98 % 0.0 in
10:15 5.1 °F 4.8 °F 1033.7 in SSW 1.6 mph 11.3 mph 98 % 0.0 in
10:30 5.1 °F 4.8 °F 1033.7 in Calm   4.8 mph 98 % 0.0 in
10:45 5.1 °F 4.8 °F 1033.7 in South 1.6 mph 8.0 mph 98 % 0.0 in
11:00 5.3 °F 5.0 °F 1033.7 in Calm   4.8 mph 98 % 0.0 in
11:15 5.3 °F 5.0 °F 1033.7 in SW 1.6 mph 9.7 mph 98 % 0.0 in
11:30 5.5 °F 5.2 °F 1033.4 in South 1.6 mph 6.4 mph 98 % 0.0 in
11:45 5.6 °F 5.3 °F 1033.4 in SSW 1.6 mph 4.8 mph 98 % 0.0 in
12:00 5.7 °F 5.4 °F 1033.1 in Calm   3.2 mph 98 % 0.0 in
12:15 5.9 °F 5.6 °F 1033.1 in Calm   6.4 mph 98 % 0.0 in
12:30 5.9 °F 5.7 °F 1033.1 in SW 1.6 mph 8.0 mph 98 % 0.0 in
12:45 6.2 °F 5.9 °F 1033.1 in Calm     98 % 0.0 in
13:00 6.3 °F 6.0 °F 1033.1 in Calm   3.2 mph 98 % 0.0 in
13:15 6.4 °F 6.1 °F 1033.1 in Calm   3.2 mph 98 % 0.0 in
13:30 6.5 °F 6.1 °F 1033.1 in South 1.6 mph 6.4 mph 97 % 0.0 in
13:45 6.6 °F 6.2 °F 1033.1 in Calm   6.4 mph 97 % 0.0 in
14:00 6.7 °F 6.2 °F 1032.7 in Calm   6.4 mph 97 % 0.0 in
14:15 6.7 °F 6.2 °F 1032.7 in Calm   6.4 mph 97 % 0.0 in
14:30 6.7 °F 6.2 °F 1032.7 in Calm   4.8 mph 97 % 0.0 in
14:45 6.7 °F 6.1 °F 1032.7 in Calm   6.4 mph 96 % 0.0 in
15:00 6.8 °F 6.2 °F 1032.7 in Calm   6.4 mph 96 % 0.0 in
15:15 6.8 °F 6.2 °F 1032.7 in Calm   6.4 mph 96 % 0.0 in
15:30 6.8 °F 6.2 °F 1032.7 in SSE 1.6 mph 6.4 mph 96 % 0.0 in
15:45 6.8 °F 6.1 °F 1032.4 in South 1.6 mph 6.4 mph 95 % 0.0 in
16:00 6.8 °F 6.0 °F 1032.4 in Calm   6.4 mph 95 % 0.0 in
16:15 6.9 °F 6.1 °F 1032.4 in Calm   3.2 mph 95 % 0.0 in
16:30 6.8 °F 6.1 °F 1032.4 in SSE 1.6 mph 9.7 mph 95 % 0.0 in
16:45 6.9 °F 6.1 °F 1032.1 in Calm   8.0 mph 95 % 0.0 in
17:00 6.9 °F 6.1 °F 1032.1 in Calm     95 % 0.0 in
17:15 6.9 °F 6.2 °F 1032.1 in Calm     95 % 0.0 in
17:30 6.9 °F 6.2 °F 1032.4 in Calm   3.2 mph 95 % 0.0 in
17:45 6.9 °F 6.1 °F 1032.4 in Calm   1.6 mph 95 % 0.0 in
18:00 6.8 °F 6.0 °F 1032.4 in Calm   1.6 mph 95 % 0.0 in
18:15 6.7 °F 6.0 °F 1032.4 in Calm   6.4 mph 95 % 0.0 in
18:30 6.6 °F 5.8 °F 1032.4 in Calm   1.6 mph 95 % 0.0 in
18:45 6.5 °F 5.8 °F 1032.4 in Calm   4.8 mph 95 % 0.0 in
19:00 6.5 °F 5.9 °F 1032.4 in Calm     96 % 0.0 in
19:15 6.4 °F 5.9 °F 1032.4 in Calm   6.4 mph 96 % 0.0 in
19:30 6.4 °F 5.8 °F 1032.1 in Calm   3.2 mph 96 % 0.0 in
19:45 6.4 °F 5.8 °F 1032.1 in Calm     96 % 0.0 in
20:00 6.3 °F 5.7 °F 1032.1 in Calm   3.2 mph 96 % 0.0 in
20:15 6.3 °F 5.7 °F 1032.1 in Calm     96 % 0.0 in
20:30 6.4 °F 5.8 °F 1032.1 in Calm     96 % 0.0 in
20:45 6.3 °F 5.9 °F 1032.1 in Calm     97 % 0.0 in
21:00 6.3 °F 5.9 °F 1032.1 in Calm     97 % 0.0 in
21:15 6.3 °F 5.9 °F 1032.1 in Calm   1.6 mph 97 % 0.0 in
21:30 6.3 °F 5.8 °F 1032.1 in Calm     97 % 0.0 in
21:45 6.2 °F 5.8 °F 1032.1 in Calm     97 % 0.0 in
22:00 6.2 °F 5.7 °F 1032.1 in Calm     97 % 0.0 in
22:15 6.0 °F 5.6 °F 1032.1 in Calm     97 % 0.0 in
22:30 5.9 °F 5.5 °F 1032.1 in Calm   8.0 mph 97 % 0.0 in
22:45 5.9 °F 5.4 °F 1032.1 in Calm   1.6 mph 97 % 0.0 in
23:00 5.8 °F 5.4 °F 1032.1 in Calm     97 % 0.0 in
23:15 5.8 °F 5.3 °F 1032.1 in Calm   1.6 mph 97 % 0.0 in
23:30 5.7 °F 5.2 °F 1032.1 in Calm     97 % 0.0 in
23:45 5.6 °F 5.2 °F 1032.1 in Calm   6.4 mph 97 % 0.0 in
Esan sääasema
Terveisin Weather Underground - 2.75 mb

Alkuperäinen skripti  Jim McMurry - jmcmurry@mwt.net Sovitettu myös templatelle  Wim van der Kuil - Leuven-Template.eu

Laitteet joita käytämme:

Sääasema
Davis VP2

Sääasemaohjelma
Cumulus

Sääaseman tietokone
Asus EeePC

Palveluntarjoaja
Suncomet

Davis VP2

Cumulus

Asus EeePC

Suncomet